sensor_id;sensor_type;location;lat;lon;timestamp;P1;durP1;ratioP1;P2;durP2;ratioP2
77146;SDS011;66121;52.584;9.694;2023-03-19T00:01:02;7.15;;;4.65;;
77146;SDS011;66121;52.584;9.694;2023-03-19T00:03:29;5.70;;;3.92;;
77146;SDS011;66121;52.584;9.694;2023-03-19T00:05:55;7.35;;;4.40;;
77146;SDS011;66121;52.584;9.694;2023-03-19T00:08:20;5.63;;;4.23;;
77146;SDS011;66121;52.584;9.694;2023-03-19T00:10:47;5.68;;;4.18;;
77146;SDS011;66121;52.584;9.694;2023-03-19T00:13:12;7.05;;;3.70;;
77146;SDS011;66121;52.584;9.694;2023-03-19T00:15:37;6.67;;;4.00;;
77146;SDS011;66121;52.584;9.694;2023-03-19T00:18:03;5.47;;;3.83;;
77146;SDS011;66121;52.584;9.694;2023-03-19T00:20:30;6.90;;;4.35;;
77146;SDS011;66121;52.584;9.694;2023-03-19T00:22:55;6.05;;;3.80;;
77146;SDS011;66121;52.584;9.694;2023-03-19T00:25:21;6.43;;;4.38;;
77146;SDS011;66121;52.584;9.694;2023-03-19T00:27:46;8.52;;;4.22;;
77146;SDS011;66121;52.584;9.694;2023-03-19T00:30:12;8.57;;;4.50;;
77146;SDS011;66121;52.584;9.694;2023-03-19T00:32:38;7.07;;;4.47;;
77146;SDS011;66121;52.584;9.694;2023-03-19T00:35:04;8.95;;;3.65;;
77146;SDS011;66121;52.584;9.694;2023-03-19T00:37:30;6.97;;;4.28;;
77146;SDS011;66121;52.584;9.694;2023-03-19T00:39:56;5.75;;;3.78;;
77146;SDS011;66121;52.584;9.694;2023-03-19T00:42:21;6.75;;;4.13;;
77146;SDS011;66121;52.584;9.694;2023-03-19T00:44:47;6.05;;;4.45;;
77146;SDS011;66121;52.584;9.694;2023-03-19T00:47:12;5.57;;;4.40;;
77146;SDS011;66121;52.584;9.694;2023-03-19T00:49:37;8.77;;;5.10;;
77146;SDS011;66121;52.584;9.694;2023-03-19T00:52:06;6.30;;;4.40;;
77146;SDS011;66121;52.584;9.694;2023-03-19T00:54:31;5.80;;;4.18;;
77146;SDS011;66121;52.584;9.694;2023-03-19T00:56:57;7.70;;;4.95;;
77146;SDS011;66121;52.584;9.694;2023-03-19T00:59:22;8.30;;;4.55;;
77146;SDS011;66121;52.584;9.694;2023-03-19T01:01:49;6.47;;;4.47;;
77146;SDS011;66121;52.584;9.694;2023-03-19T01:04:15;6.63;;;4.10;;
77146;SDS011;66121;52.584;9.694;2023-03-19T01:06:41;6.82;;;4.22;;
77146;SDS011;66121;52.584;9.694;2023-03-19T01:09:07;6.85;;;4.20;;
77146;SDS011;66121;52.584;9.694;2023-03-19T01:11:32;8.38;;;4.53;;
77146;SDS011;66121;52.584;9.694;2023-03-19T01:13:58;6.53;;;4.40;;
77146;SDS011;66121;52.584;9.694;2023-03-19T01:16:23;8.85;;;4.93;;
77146;SDS011;66121;52.584;9.694;2023-03-19T01:18:48;7.37;;;4.97;;
77146;SDS011;66121;52.584;9.694;2023-03-19T01:21:13;7.60;;;4.95;;
77146;SDS011;66121;52.584;9.694;2023-03-19T01:23:39;6.40;;;4.03;;
77146;SDS011;66121;52.584;9.694;2023-03-19T01:26:04;11.15;;;4.93;;
77146;SDS011;66121;52.584;9.694;2023-03-19T01:28:30;8.32;;;4.97;;
77146;SDS011;66121;52.584;9.694;2023-03-19T01:31:04;7.47;;;5.17;;
77146;SDS011;66121;52.584;9.694;2023-03-19T01:33:31;7.07;;;5.20;;
77146;SDS011;66121;52.584;9.694;2023-03-19T01:35:57;8.23;;;4.85;;
77146;SDS011;66121;52.584;9.694;2023-03-19T01:38:23;6.32;;;4.03;;
77146;SDS011;66121;52.584;9.694;2023-03-19T01:40:49;6.88;;;4.18;;
77146;SDS011;66121;52.584;9.694;2023-03-19T01:45:45;6.20;;;4.82;;
77146;SDS011;66121;52.584;9.694;2023-03-19T01:48:35;5.57;;;4.30;;
77146;SDS011;66121;52.584;9.694;2023-03-19T01:51:02;4.85;;;3.50;;
77146;SDS011;66121;52.584;9.694;2023-03-19T01:53:32;6.80;;;4.80;;
77146;SDS011;66121;52.584;9.694;2023-03-19T01:56:06;7.40;;;4.20;;
77146;SDS011;66121;52.584;9.694;2023-03-19T01:58:34;7.20;;;4.78;;
77146;SDS011;66121;52.584;9.694;2023-03-19T02:01:00;6.78;;;4.80;;
77146;SDS011;66121;52.584;9.694;2023-03-19T02:03:27;7.82;;;4.00;;
77146;SDS011;66121;52.584;9.694;2023-03-19T02:05:52;7.30;;;4.53;;
77146;SDS011;66121;52.584;9.694;2023-03-19T02:08:21;6.47;;;4.78;;
77146;SDS011;66121;52.584;9.694;2023-03-19T02:10:48;8.70;;;5.03;;
77146;SDS011;66121;52.584;9.694;2023-03-19T02:13:15;6.05;;;4.32;;
77146;SDS011;66121;52.584;9.694;2023-03-19T02:15:41;6.03;;;4.40;;
77146;SDS011;66121;52.584;9.694;2023-03-19T02:18:06;8.73;;;5.32;;
77146;SDS011;66121;52.584;9.694;2023-03-19T02:20:43;8.63;;;5.53;;
77146;SDS011;66121;52.584;9.694;2023-03-19T02:23:31;9.70;;;6.32;;
77146;SDS011;66121;52.584;9.694;2023-03-19T02:26:06;14.35;;;6.88;;
77146;SDS011;66121;52.584;9.694;2023-03-19T02:28:33;9.70;;;5.55;;
77146;SDS011;66121;52.584;9.694;2023-03-19T02:31:03;10.05;;;6.22;;
77146;SDS011;66121;52.584;9.694;2023-03-19T02:33:30;8.75;;;6.75;;
77146;SDS011;66121;52.584;9.694;2023-03-19T02:35:55;14.20;;;8.17;;
77146;SDS011;66121;52.584;9.694;2023-03-19T02:38:21;17.08;;;10.27;;
77146;SDS011;66121;52.584;9.694;2023-03-19T02:40:57;23.52;;;14.63;;
77146;SDS011;66121;52.584;9.694;2023-03-19T02:43:25;22.10;;;11.63;;
77146;SDS011;66121;52.584;9.694;2023-03-19T02:45:51;12.15;;;7.95;;
77146;SDS011;66121;52.584;9.694;2023-03-19T02:48:16;13.05;;;7.78;;
77146;SDS011;66121;52.584;9.694;2023-03-19T02:50:42;10.90;;;7.63;;
77146;SDS011;66121;52.584;9.694;2023-03-19T02:53:07;11.40;;;8.23;;
77146;SDS011;66121;52.584;9.694;2023-03-19T02:55:32;10.20;;;7.57;;
77146;SDS011;66121;52.584;9.694;2023-03-19T02:57:58;13.93;;;7.57;;
77146;SDS011;66121;52.584;9.694;2023-03-19T03:00:23;15.40;;;8.70;;
77146;SDS011;66121;52.584;9.694;2023-03-19T03:02:49;13.80;;;8.40;;
77146;SDS011;66121;52.584;9.694;2023-03-19T03:05:15;11.70;;;7.53;;
77146;SDS011;66121;52.584;9.694;2023-03-19T03:07:40;13.60;;;7.15;;
77146;SDS011;66121;52.584;9.694;2023-03-19T03:10:07;10.95;;;7.75;;
77146;SDS011;66121;52.584;9.694;2023-03-19T03:12:33;13.73;;;8.27;;
77146;SDS011;66121;52.584;9.694;2023-03-19T03:14:59;12.43;;;7.88;;
77146;SDS011;66121;52.584;9.694;2023-03-19T03:17:25;16.30;;;8.43;;
77146;SDS011;66121;52.584;9.694;2023-03-19T03:19:50;12.43;;;8.18;;
77146;SDS011;66121;52.584;9.694;2023-03-19T03:22:17;14.88;;;8.25;;
77146;SDS011;66121;52.584;9.694;2023-03-19T03:24:42;15.23;;;8.25;;
77146;SDS011;66121;52.584;9.694;2023-03-19T03:27:08;14.57;;;8.93;;
77146;SDS011;66121;52.584;9.694;2023-03-19T03:29:33;15.52;;;9.57;;
77146;SDS011;66121;52.584;9.694;2023-03-19T03:31:59;14.98;;;9.32;;
77146;SDS011;66121;52.584;9.694;2023-03-19T03:34:25;17.60;;;10.38;;
77146;SDS011;66121;52.584;9.694;2023-03-19T03:36:50;16.00;;;10.55;;
77146;SDS011;66121;52.584;9.694;2023-03-19T03:39:16;17.23;;;9.85;;
77146;SDS011;66121;52.584;9.694;2023-03-19T03:41:42;17.65;;;9.93;;
77146;SDS011;66121;52.584;9.694;2023-03-19T03:44:08;16.90;;;9.57;;
77146;SDS011;66121;52.584;9.694;2023-03-19T03:46:34;13.32;;;8.55;;
77146;SDS011;66121;52.584;9.694;2023-03-19T03:48:59;14.00;;;9.18;;
77146;SDS011;66121;52.584;9.694;2023-03-19T03:51:24;16.63;;;9.02;;
77146;SDS011;66121;52.584;9.694;2023-03-19T03:53:50;13.63;;;9.13;;
77146;SDS011;66121;52.584;9.694;2023-03-19T03:56:15;14.65;;;9.57;;
77146;SDS011;66121;52.584;9.694;2023-03-19T03:58:40;17.40;;;9.63;;
77146;SDS011;66121;52.584;9.694;2023-03-19T04:01:06;15.20;;;9.57;;
77146;SDS011;66121;52.584;9.694;2023-03-19T04:03:31;13.68;;;8.75;;
77146;SDS011;66121;52.584;9.694;2023-03-19T04:05:57;14.30;;;8.55;;
77146;SDS011;66121;52.584;9.694;2023-03-19T04:08:22;11.35;;;7.65;;
77146;SDS011;66121;52.584;9.694;2023-03-19T04:10:48;15.35;;;8.93;;
77146;SDS011;66121;52.584;9.694;2023-03-19T04:13:14;14.30;;;9.05;;
77146;SDS011;66121;52.584;9.694;2023-03-19T04:15:42;14.45;;;8.40;;
77146;SDS011;66121;52.584;9.694;2023-03-19T04:18:08;17.23;;;14.02;;
77146;SDS011;66121;52.584;9.694;2023-03-19T04:20:33;13.00;;;9.18;;
77146;SDS011;66121;52.584;9.694;2023-03-19T04:22:59;11.70;;;7.75;;
77146;SDS011;66121;52.584;9.694;2023-03-19T04:25:26;11.15;;;6.68;;
77146;SDS011;66121;52.584;9.694;2023-03-19T04:27:51;10.75;;;6.75;;
77146;SDS011;66121;52.584;9.694;2023-03-19T04:30:16;10.48;;;6.43;;
77146;SDS011;66121;52.584;9.694;2023-03-19T04:32:42;11.73;;;7.75;;
77146;SDS011;66121;52.584;9.694;2023-03-19T04:35:08;11.70;;;7.40;;
77146;SDS011;66121;52.584;9.694;2023-03-19T04:37:33;13.98;;;8.18;;
77146;SDS011;66121;52.584;9.694;2023-03-19T04:39:59;10.18;;;6.50;;
77146;SDS011;66121;52.584;9.694;2023-03-19T04:42:25;11.32;;;7.32;;
77146;SDS011;66121;52.584;9.694;2023-03-19T04:44:50;11.57;;;6.90;;
77146;SDS011;66121;52.584;9.694;2023-03-19T04:47:16;10.13;;;7.05;;
77146;SDS011;66121;52.584;9.694;2023-03-19T04:49:42;10.27;;;6.57;;
77146;SDS011;66121;52.584;9.694;2023-03-19T04:52:07;9.50;;;6.53;;
77146;SDS011;66121;52.584;9.694;2023-03-19T04:54:33;11.10;;;6.63;;
77146;SDS011;66121;52.584;9.694;2023-03-19T04:56:58;11.20;;;7.28;;
77146;SDS011;66121;52.584;9.694;2023-03-19T04:59:24;14.68;;;7.72;;
77146;SDS011;66121;52.584;9.694;2023-03-19T05:01:50;10.68;;;6.53;;
77146;SDS011;66121;52.584;9.694;2023-03-19T05:04:15;8.93;;;6.72;;
77146;SDS011;66121;52.584;9.694;2023-03-19T05:06:41;9.98;;;6.35;;
77146;SDS011;66121;52.584;9.694;2023-03-19T05:09:07;9.82;;;6.57;;
77146;SDS011;66121;52.584;9.694;2023-03-19T05:11:33;10.32;;;6.95;;
77146;SDS011;66121;52.584;9.694;2023-03-19T05:13:58;10.75;;;6.25;;
77146;SDS011;66121;52.584;9.694;2023-03-19T05:16:24;10.17;;;6.73;;
77146;SDS011;66121;52.584;9.694;2023-03-19T05:18:49;8.77;;;6.13;;
77146;SDS011;66121;52.584;9.694;2023-03-19T05:21:14;9.02;;;6.35;;
77146;SDS011;66121;52.584;9.694;2023-03-19T05:23:40;9.60;;;6.73;;
77146;SDS011;66121;52.584;9.694;2023-03-19T05:26:06;13.80;;;8.88;;
77146;SDS011;66121;52.584;9.694;2023-03-19T05:28:32;11.63;;;7.57;;
77146;SDS011;66121;52.584;9.694;2023-03-19T05:30:58;12.43;;;8.35;;
77146;SDS011;66121;52.584;9.694;2023-03-19T05:33:23;12.02;;;7.55;;
77146;SDS011;66121;52.584;9.694;2023-03-19T05:35:48;11.35;;;7.47;;
77146;SDS011;66121;52.584;9.694;2023-03-19T05:38:14;14.63;;;8.83;;
77146;SDS011;66121;52.584;9.694;2023-03-19T05:40:39;12.75;;;8.00;;
77146;SDS011;66121;52.584;9.694;2023-03-19T05:43:08;16.67;;;8.85;;
77146;SDS011;66121;52.584;9.694;2023-03-19T05:45:34;11.80;;;8.32;;
77146;SDS011;66121;52.584;9.694;2023-03-19T05:48:00;14.25;;;8.00;;
77146;SDS011;66121;52.584;9.694;2023-03-19T05:50:26;12.10;;;7.85;;
77146;SDS011;66121;52.584;9.694;2023-03-19T05:52:51;11.32;;;7.60;;
77146;SDS011;66121;52.584;9.694;2023-03-19T05:55:17;14.73;;;7.97;;
77146;SDS011;66121;52.584;9.694;2023-03-19T05:57:42;12.23;;;8.30;;
77146;SDS011;66121;52.584;9.694;2023-03-19T06:00:08;11.93;;;7.60;;
77146;SDS011;66121;52.584;9.694;2023-03-19T06:02:34;15.27;;;8.18;;
77146;SDS011;66121;52.584;9.694;2023-03-19T06:05:00;12.45;;;7.97;;
77146;SDS011;66121;52.584;9.694;2023-03-19T06:07:26;14.30;;;7.65;;
77146;SDS011;66121;52.584;9.694;2023-03-19T06:09:51;17.30;;;8.63;;
77146;SDS011;66121;52.584;9.694;2023-03-19T06:12:16;13.48;;;8.73;;
77146;SDS011;66121;52.584;9.694;2023-03-19T06:14:43;14.57;;;9.07;;
77146;SDS011;66121;52.584;9.694;2023-03-19T06:17:08;15.40;;;9.43;;
77146;SDS011;66121;52.584;9.694;2023-03-19T06:19:34;13.60;;;8.40;;
77146;SDS011;66121;52.584;9.694;2023-03-19T06:21:59;16.33;;;9.87;;
77146;SDS011;66121;52.584;9.694;2023-03-19T06:24:25;14.45;;;9.27;;
77146;SDS011;66121;52.584;9.694;2023-03-19T06:26:50;15.15;;;9.35;;
77146;SDS011;66121;52.584;9.694;2023-03-19T06:29:15;16.15;;;9.02;;
77146;SDS011;66121;52.584;9.694;2023-03-19T06:31:40;14.67;;;8.53;;
77146;SDS011;66121;52.584;9.694;2023-03-19T06:34:06;16.10;;;9.77;;
77146;SDS011;66121;52.584;9.694;2023-03-19T06:36:31;19.83;;;11.27;;
77146;SDS011;66121;52.584;9.694;2023-03-19T06:38:57;17.47;;;10.83;;
77146;SDS011;66121;52.584;9.694;2023-03-19T06:41:22;16.77;;;11.10;;
77146;SDS011;66121;52.584;9.694;2023-03-19T06:43:49;20.05;;;11.32;;
77146;SDS011;66121;52.584;9.694;2023-03-19T06:46:14;16.42;;;10.77;;
77146;SDS011;66121;52.584;9.694;2023-03-19T06:48:39;17.58;;;11.75;;
77146;SDS011;66121;52.584;9.694;2023-03-19T06:51:05;18.50;;;12.57;;
77146;SDS011;66121;52.584;9.694;2023-03-19T06:53:30;17.52;;;11.43;;
77146;SDS011;66121;52.584;9.694;2023-03-19T06:55:56;17.65;;;10.88;;
77146;SDS011;66121;52.584;9.694;2023-03-19T06:58:21;18.03;;;11.10;;
77146;SDS011;66121;52.584;9.694;2023-03-19T07:00:47;20.37;;;11.87;;
77146;SDS011;66121;52.584;9.694;2023-03-19T07:03:12;20.88;;;12.85;;
77146;SDS011;66121;52.584;9.694;2023-03-19T07:05:37;18.83;;;12.00;;
77146;SDS011;66121;52.584;9.694;2023-03-19T07:08:03;20.23;;;11.60;;
77146;SDS011;66121;52.584;9.694;2023-03-19T07:10:28;16.73;;;11.80;;
77146;SDS011;66121;52.584;9.694;2023-03-19T07:12:54;17.80;;;11.35;;
77146;SDS011;66121;52.584;9.694;2023-03-19T07:15:19;18.70;;;11.98;;
77146;SDS011;66121;52.584;9.694;2023-03-19T07:17:45;16.42;;;10.60;;
77146;SDS011;66121;52.584;9.694;2023-03-19T07:20:12;16.95;;;11.25;;
77146;SDS011;66121;52.584;9.694;2023-03-19T07:22:38;19.90;;;11.52;;
77146;SDS011;66121;52.584;9.694;2023-03-19T07:25:03;15.60;;;10.95;;
77146;SDS011;66121;52.584;9.694;2023-03-19T07:27:29;14.32;;;9.10;;
77146;SDS011;66121;52.584;9.694;2023-03-19T07:29:54;11.55;;;8.30;;
77146;SDS011;66121;52.584;9.694;2023-03-19T07:32:20;12.90;;;8.20;;
77146;SDS011;66121;52.584;9.694;2023-03-19T07:34:47;15.35;;;8.50;;
77146;SDS011;66121;52.584;9.694;2023-03-19T07:37:13;14.00;;;7.70;;
77146;SDS011;66121;52.584;9.694;2023-03-19T07:39:38;11.43;;;7.10;;
77146;SDS011;66121;52.584;9.694;2023-03-19T07:42:03;12.63;;;8.47;;
77146;SDS011;66121;52.584;9.694;2023-03-19T07:44:29;10.95;;;7.97;;
77146;SDS011;66121;52.584;9.694;2023-03-19T07:46:54;13.30;;;8.50;;
77146;SDS011;66121;52.584;9.694;2023-03-19T07:49:20;14.83;;;8.07;;
77146;SDS011;66121;52.584;9.694;2023-03-19T07:51:46;16.52;;;8.52;;
77146;SDS011;66121;52.584;9.694;2023-03-19T07:54:12;13.35;;;8.52;;
77146;SDS011;66121;52.584;9.694;2023-03-19T07:56:37;13.75;;;8.02;;
77146;SDS011;66121;52.584;9.694;2023-03-19T07:59:02;12.07;;;7.70;;
77146;SDS011;66121;52.584;9.694;2023-03-19T08:01:28;13.43;;;8.80;;
77146;SDS011;66121;52.584;9.694;2023-03-19T08:03:53;11.63;;;7.90;;
77146;SDS011;66121;52.584;9.694;2023-03-19T08:06:18;15.77;;;8.80;;
77146;SDS011;66121;52.584;9.694;2023-03-19T08:08:44;15.73;;;8.60;;
77146;SDS011;66121;52.584;9.694;2023-03-19T08:11:10;11.85;;;8.88;;
77146;SDS011;66121;52.584;9.694;2023-03-19T08:13:35;14.63;;;8.70;;
77146;SDS011;66121;52.584;9.694;2023-03-19T08:16:00;13.52;;;8.88;;
77146;SDS011;66121;52.584;9.694;2023-03-19T08:18:26;9.77;;;7.77;;
77146;SDS011;66121;52.584;9.694;2023-03-19T08:20:51;16.57;;;8.77;;
77146;SDS011;66121;52.584;9.694;2023-03-19T08:23:16;10.97;;;6.47;;
77146;SDS011;66121;52.584;9.694;2023-03-19T08:25:42;7.30;;;5.90;;
77146;SDS011;66121;52.584;9.694;2023-03-19T08:28:07;8.00;;;4.80;;
77146;SDS011;66121;52.584;9.694;2023-03-19T08:30:34;6.30;;;3.90;;
77146;SDS011;66121;52.584;9.694;2023-03-19T08:33:00;6.85;;;4.22;;
77146;SDS011;66121;52.584;9.694;2023-03-19T08:35:25;7.18;;;5.05;;
77146;SDS011;66121;52.584;9.694;2023-03-19T08:37:51;12.65;;;5.05;;
77146;SDS011;66121;52.584;9.694;2023-03-19T08:40:17;7.13;;;4.47;;
77146;SDS011;66121;52.584;9.694;2023-03-19T08:42:42;5.50;;;3.88;;
77146;SDS011;66121;52.584;9.694;2023-03-19T08:45:08;7.05;;;4.40;;
77146;SDS011;66121;52.584;9.694;2023-03-19T08:47:34;8.60;;;4.50;;
77146;SDS011;66121;52.584;9.694;2023-03-19T08:50:00;8.13;;;4.37;;
77146;SDS011;66121;52.584;9.694;2023-03-19T08:52:25;8.45;;;4.20;;
77146;SDS011;66121;52.584;9.694;2023-03-19T08:54:50;10.23;;;4.35;;
77146;SDS011;66121;52.584;9.694;2023-03-19T08:57:16;6.83;;;3.40;;
77146;SDS011;66121;52.584;9.694;2023-03-19T08:59:41;7.63;;;4.07;;
77146;SDS011;66121;52.584;9.694;2023-03-19T09:02:08;6.53;;;3.83;;
77146;SDS011;66121;52.584;9.694;2023-03-19T09:04:34;9.55;;;4.05;;
77146;SDS011;66121;52.584;9.694;2023-03-19T09:07:02;6.13;;;3.10;;
77146;SDS011;66121;52.584;9.694;2023-03-19T09:09:28;5.22;;;3.22;;
77146;SDS011;66121;52.584;9.694;2023-03-19T09:11:53;5.85;;;3.30;;
77146;SDS011;66121;52.584;9.694;2023-03-19T09:14:18;6.17;;;3.03;;
77146;SDS011;66121;52.584;9.694;2023-03-19T09:16:44;3.90;;;2.88;;
77146;SDS011;66121;52.584;9.694;2023-03-19T09:19:09;5.28;;;2.95;;
77146;SDS011;66121;52.584;9.694;2023-03-19T09:21:35;4.60;;;2.87;;
77146;SDS011;66121;52.584;9.694;2023-03-19T09:24:01;5.90;;;2.92;;
77146;SDS011;66121;52.584;9.694;2023-03-19T09:26:26;5.25;;;3.08;;
77146;SDS011;66121;52.584;9.694;2023-03-19T09:28:52;4.95;;;2.42;;
77146;SDS011;66121;52.584;9.694;2023-03-19T09:31:17;8.23;;;3.30;;
77146;SDS011;66121;52.584;9.694;2023-03-19T09:33:43;7.35;;;2.80;;
77146;SDS011;66121;52.584;9.694;2023-03-19T09:36:08;4.57;;;2.60;;
77146;SDS011;66121;52.584;9.694;2023-03-19T09:38:33;4.78;;;2.60;;
77146;SDS011;66121;52.584;9.694;2023-03-19T09:46:44;5.15;;;2.55;;
77146;SDS011;66121;52.584;9.694;2023-03-19T09:51:47;4.00;;;2.40;;
77146;SDS011;66121;52.584;9.694;2023-03-19T09:54:19;4.07;;;2.60;;
77146;SDS011;66121;52.584;9.694;2023-03-19T09:56:51;4.50;;;2.15;;
77146;SDS011;66121;52.584;9.694;2023-03-19T09:59:17;3.28;;;2.20;;
77146;SDS011;66121;52.584;9.694;2023-03-19T10:01:45;4.50;;;2.30;;
77146;SDS011;66121;52.584;9.694;2023-03-19T10:04:40;3.42;;;2.35;;
77146;SDS011;66121;52.584;9.694;2023-03-19T10:07:18;5.32;;;2.38;;
77146;SDS011;66121;52.584;9.694;2023-03-19T10:17:57;5.95;;;2.70;;
77146;SDS011;66121;52.584;9.694;2023-03-19T10:21:11;6.03;;;2.60;;
77146;SDS011;66121;52.584;9.694;2023-03-19T10:23:31;5.93;;;2.75;;
77146;SDS011;66121;52.584;9.694;2023-03-19T10:26:16;5.45;;;2.10;;
77146;SDS011;66121;52.584;9.694;2023-03-19T10:28:45;5.50;;;2.60;;
77146;SDS011;66121;52.584;9.694;2023-03-19T10:31:25;4.90;;;2.45;;
77146;SDS011;66121;52.584;9.694;2023-03-19T10:34:09;6.38;;;2.75;;
77146;SDS011;66121;52.584;9.694;2023-03-19T10:36:59;9.07;;;3.08;;
77146;SDS011;66121;52.584;9.694;2023-03-19T10:39:30;5.10;;;2.50;;
77146;SDS011;66121;52.584;9.694;2023-03-19T10:44:50;6.13;;;2.25;;
77146;SDS011;66121;52.584;9.694;2023-03-19T10:47:21;6.72;;;2.75;;
77146;SDS011;66121;52.584;9.694;2023-03-19T10:49:52;4.55;;;2.67;;
77146;SDS011;66121;52.584;9.694;2023-03-19T10:52:29;5.55;;;2.63;;
77146;SDS011;66121;52.584;9.694;2023-03-19T10:55:02;4.40;;;2.60;;
77146;SDS011;66121;52.584;9.694;2023-03-19T10:57:36;4.88;;;2.42;;
77146;SDS011;66121;52.584;9.694;2023-03-19T11:00:13;5.53;;;2.33;;
77146;SDS011;66121;52.584;9.694;2023-03-19T11:02:50;4.35;;;2.70;;
77146;SDS011;66121;52.584;9.694;2023-03-19T11:07:50;4.60;;;2.47;;
77146;SDS011;66121;52.584;9.694;2023-03-19T11:10:20;7.18;;;3.00;;
77146;SDS011;66121;52.584;9.694;2023-03-19T11:13:05;5.57;;;2.78;;
77146;SDS011;66121;52.584;9.694;2023-03-19T11:15:37;4.93;;;2.45;;
77146;SDS011;66121;52.584;9.694;2023-03-19T11:18:07;5.97;;;3.20;;
77146;SDS011;66121;52.584;9.694;2023-03-19T11:20:40;8.43;;;3.08;;
77146;SDS011;66121;52.584;9.694;2023-03-19T11:23:16;6.03;;;2.70;;
77146;SDS011;66121;52.584;9.694;2023-03-19T11:25:51;4.30;;;3.33;;
77146;SDS011;66121;52.584;9.694;2023-03-19T11:28:19;5.28;;;3.08;;
77146;SDS011;66121;52.584;9.694;2023-03-19T11:44:32;7.80;;;3.08;;
77146;SDS011;66121;52.584;9.694;2023-03-19T11:55:53;5.45;;;2.80;;
77146;SDS011;66121;52.584;9.694;2023-03-19T12:06:39;5.00;;;2.70;;
77146;SDS011;66121;52.584;9.694;2023-03-19T12:09:28;4.57;;;2.70;;
77146;SDS011;66121;52.584;9.694;2023-03-19T12:12:18;5.13;;;2.72;;
77146;SDS011;66121;52.584;9.694;2023-03-19T12:17:36;4.50;;;2.72;;
77146;SDS011;66121;52.584;9.694;2023-03-19T12:22:59;8.05;;;3.08;;
77146;SDS011;66121;52.584;9.694;2023-03-19T12:30:48;6.25;;;2.70;;
77146;SDS011;66121;52.584;9.694;2023-03-19T12:33:41;5.18;;;2.83;;
77146;SDS011;66121;52.584;9.694;2023-03-19T12:36:30;5.55;;;2.50;;
77146;SDS011;66121;52.584;9.694;2023-03-19T12:39:10;5.05;;;2.65;;
77146;SDS011;66121;52.584;9.694;2023-03-19T12:41:39;6.20;;;2.90;;
77146;SDS011;66121;52.584;9.694;2023-03-19T12:46:37;5.40;;;3.10;;
77146;SDS011;66121;52.584;9.694;2023-03-19T12:52:09;4.22;;;3.10;;
77146;SDS011;66121;52.584;9.694;2023-03-19T12:54:38;8.02;;;3.42;;
77146;SDS011;66121;52.584;9.694;2023-03-19T13:05:37;3.78;;;2.70;;
77146;SDS011;66121;52.584;9.694;2023-03-19T13:10:51;6.07;;;3.25;;
77146;SDS011;66121;52.584;9.694;2023-03-19T13:15:56;5.68;;;3.17;;
77146;SDS011;66121;52.584;9.694;2023-03-19T13:18:34;7.13;;;3.33;;
77146;SDS011;66121;52.584;9.694;2023-03-19T13:21:27;5.55;;;3.28;;
77146;SDS011;66121;52.584;9.694;2023-03-19T13:26:40;5.10;;;3.45;;
77146;SDS011;66121;52.584;9.694;2023-03-19T13:29:08;6.35;;;4.00;;
77146;SDS011;66121;52.584;9.694;2023-03-19T13:31:41;7.32;;;4.20;;
77146;SDS011;66121;52.584;9.694;2023-03-19T13:36:42;5.32;;;3.63;;
77146;SDS011;66121;52.584;9.694;2023-03-19T13:39:15;6.57;;;4.22;;
77146;SDS011;66121;52.584;9.694;2023-03-19T13:46:46;7.05;;;4.60;;
77146;SDS011;66121;52.584;9.694;2023-03-19T13:51:43;8.50;;;6.07;;
77146;SDS011;66121;52.584;9.694;2023-03-19T13:57:20;10.18;;;5.65;;
77146;SDS011;66121;52.584;9.694;2023-03-19T13:59:27;7.07;;;5.13;;
77146;SDS011;66121;52.584;9.694;2023-03-19T14:01:55;6.97;;;5.20;;
77146;SDS011;66121;52.584;9.694;2023-03-19T14:04:25;6.70;;;4.53;;
77146;SDS011;66121;52.584;9.694;2023-03-19T14:14:44;6.28;;;4.43;;
77146;SDS011;66121;52.584;9.694;2023-03-19T14:17:14;7.00;;;4.60;;
77146;SDS011;66121;52.584;9.694;2023-03-19T14:19:43;7.65;;;5.15;;
77146;SDS011;66121;52.584;9.694;2023-03-19T14:22:17;7.63;;;4.35;;
77146;SDS011;66121;52.584;9.694;2023-03-19T14:24:55;8.25;;;4.65;;
77146;SDS011;66121;52.584;9.694;2023-03-19T14:27:37;6.10;;;4.00;;
77146;SDS011;66121;52.584;9.694;2023-03-19T14:30:10;6.75;;;4.35;;
77146;SDS011;66121;52.584;9.694;2023-03-19T14:32:48;6.57;;;3.80;;
77146;SDS011;66121;52.584;9.694;2023-03-19T14:35:16;5.63;;;4.28;;
77146;SDS011;66121;52.584;9.694;2023-03-19T14:37:51;6.78;;;4.50;;
77146;SDS011;66121;52.584;9.694;2023-03-19T14:40:25;9.48;;;4.38;;
77146;SDS011;66121;52.584;9.694;2023-03-19T14:54:03;8.25;;;4.65;;
77146;SDS011;66121;52.584;9.694;2023-03-19T14:56:41;8.57;;;5.10;;
77146;SDS011;66121;52.584;9.694;2023-03-19T14:59:08;8.93;;;4.93;;
77146;SDS011;66121;52.584;9.694;2023-03-19T15:04:10;5.93;;;4.30;;
77146;SDS011;66121;52.584;9.694;2023-03-19T15:06:38;7.15;;;4.20;;
77146;SDS011;66121;52.584;9.694;2023-03-19T15:09:11;6.03;;;4.45;;
77146;SDS011;66121;52.584;9.694;2023-03-19T15:11:47;7.32;;;4.57;;
77146;SDS011;66121;52.584;9.694;2023-03-19T15:14:37;6.03;;;4.43;;
77146;SDS011;66121;52.584;9.694;2023-03-19T15:17:27;8.02;;;5.20;;
77146;SDS011;66121;52.584;9.694;2023-03-19T15:19:54;9.65;;;4.50;;
77146;SDS011;66121;52.584;9.694;2023-03-19T15:22:31;7.28;;;4.75;;
77146;SDS011;66121;52.584;9.694;2023-03-19T15:25:11;8.63;;;4.88;;
77146;SDS011;66121;52.584;9.694;2023-03-19T15:27:39;9.65;;;4.95;;
77146;SDS011;66121;52.584;9.694;2023-03-19T15:30:24;7.57;;;5.30;;
77146;SDS011;66121;52.584;9.694;2023-03-19T15:32:53;7.43;;;4.90;;
77146;SDS011;66121;52.584;9.694;2023-03-19T15:35:19;8.13;;;5.75;;
77146;SDS011;66121;52.584;9.694;2023-03-19T15:37:49;9.30;;;5.80;;
77146;SDS011;66121;52.584;9.694;2023-03-19T15:40:20;8.18;;;5.32;;
77146;SDS011;66121;52.584;9.694;2023-03-19T15:42:48;8.50;;;5.78;;
77146;SDS011;66121;52.584;9.694;2023-03-19T15:45:17;10.57;;;5.85;;
77146;SDS011;66121;52.584;9.694;2023-03-19T15:50:19;9.57;;;6.78;;
77146;SDS011;66121;52.584;9.694;2023-03-19T15:52:49;11.90;;;7.15;;
77146;SDS011;66121;52.584;9.694;2023-03-19T15:55:18;9.65;;;6.45;;
77146;SDS011;66121;52.584;9.694;2023-03-19T15:57:45;9.02;;;6.15;;
77146;SDS011;66121;52.584;9.694;2023-03-19T16:00:12;12.73;;;6.97;;
77146;SDS011;66121;52.584;9.694;2023-03-19T16:02:39;11.15;;;7.50;;
77146;SDS011;66121;52.584;9.694;2023-03-19T16:05:16;8.95;;;7.07;;
77146;SDS011;66121;52.584;9.694;2023-03-19T16:07:50;10.82;;;7.53;;
77146;SDS011;66121;52.584;9.694;2023-03-19T16:10:30;11.70;;;7.28;;
77146;SDS011;66121;52.584;9.694;2023-03-19T16:13:17;11.80;;;7.45;;
77146;SDS011;66121;52.584;9.694;2023-03-19T16:15:46;13.77;;;7.45;;
77146;SDS011;66121;52.584;9.694;2023-03-19T16:20:43;14.52;;;8.30;;
77146;SDS011;66121;52.584;9.694;2023-03-19T16:23:16;12.65;;;8.38;;
77146;SDS011;66121;52.584;9.694;2023-03-19T16:25:45;11.57;;;7.63;;
77146;SDS011;66121;52.584;9.694;2023-03-19T16:28:17;12.15;;;8.18;;
77146;SDS011;66121;52.584;9.694;2023-03-19T16:30:47;11.80;;;7.30;;
77146;SDS011;66121;52.584;9.694;2023-03-19T16:33:15;12.13;;;8.35;;
77146;SDS011;66121;52.584;9.694;2023-03-19T16:35:41;12.10;;;8.20;;
77146;SDS011;66121;52.584;9.694;2023-03-19T16:38:12;11.57;;;7.85;;
77146;SDS011;66121;52.584;9.694;2023-03-19T16:40:40;12.70;;;8.25;;
77146;SDS011;66121;52.584;9.694;2023-03-19T16:43:13;11.55;;;7.80;;
77146;SDS011;66121;52.584;9.694;2023-03-19T16:45:41;13.10;;;8.50;;
77146;SDS011;66121;52.584;9.694;2023-03-19T16:48:07;11.85;;;8.43;;
77146;SDS011;66121;52.584;9.694;2023-03-19T16:50:34;13.60;;;8.02;;
77146;SDS011;66121;52.584;9.694;2023-03-19T16:53:02;14.43;;;8.25;;
77146;SDS011;66121;52.584;9.694;2023-03-19T16:55:31;15.27;;;8.98;;